Time;durP1;ratioP1;P1;durP2;ratioP2;P2;SDS_P1;SDS_P2;PMS_P1;PMS_P2;Temp;Humidity;BMP_temperature;BMP_pressure;BME280_temperature;BME280_humidity;BME280_pressure;Samples;Min_cycle;Max_cycle;Signal;HPM_P1;HPM_P2
2022/04/07 00:00:27;;;;;;;13.38;6.65;;;;;;;;;;4970318;28;20396;-66
2022/04/07 00:02:57;;;;;;;13.23;8.50;;;;;;;;;;4970181;28;20055;-66
2022/04/07 00:05:28;;;;;;;19.80;9.52;;;;;;;;;;4957046;28;20067;-66
2022/04/07 00:07:58;;;;;;;25.10;11.80;;;;;;;;;;4950911;29;20451;-66
2022/04/07 00:10:29;;;;;;;29.27;14.43;;;;;;;;;;4978577;28;20065;-66
2022/04/07 00:13:00;;;;;;;26.05;14.55;;;;;;;;;;4989177;28;20058;-66
2022/04/07 00:15:32;;;;;;;23.77;13.70;;;;;;;;;;4973978;28;20065;-66
2022/04/07 00:18:04;;;;;;;21.48;12.90;;;;;;;;;;4992289;28;20058;-66
2022/04/07 00:20:35;;;;;;;15.52;9.70;;;;;;;;;;5028916;28;20080;-66
2022/04/07 00:23:06;;;;;;;19.33;10.07;;;;;;;;;;5028655;28;20156;-66
2022/04/07 00:25:37;;;;;;;15.15;9.20;;;;;;;;;;5012824;28;20053;-66
2022/04/07 00:28:07;;;;;;;13.57;7.30;;;;;;;;;;4995656;28;20045;-66
2022/04/07 00:30:39;;;;;;;10.77;6.68;;;;;;;;;;5028469;28;20057;-66
2022/04/07 00:33:10;;;;;;;9.02;5.72;;;;;;;;;;5028679;28;20409;-66
2022/04/07 00:35:41;;;;;;;9.60;6.22;;;;;;;;;;5047867;28;20057;-66
2022/04/07 00:38:11;;;;;;;13.50;6.78;;;;;;;;;;5015838;28;20061;-66
2022/04/07 00:40:42;;;;;;;12.55;6.40;;;;;;;;;;5050931;28;20052;-66
2022/04/07 00:43:31;;;;;;;11.95;6.35;;;;;;;;;;5061310;28;20067;-66
2022/04/07 00:46:03;;;;;;;13.30;6.28;;;;;;;;;;5035442;28;20071;-66
2022/04/07 00:48:35;;;;;;;12.50;6.45;;;;;;;;;;5018818;28;20060;-66
2022/04/07 00:51:07;;;;;;;12.52;6.95;;;;;;;;;;5053613;28;20503;-66
2022/04/07 00:53:38;;;;;;;11.07;6.72;;;;;;;;;;5070660;28;20040;-66
2022/04/07 00:56:10;;;;;;;11.90;7.25;;;;;;;;;;5067850;28;20055;-66
2022/04/07 00:58:41;;;;;;;12.40;7.18;;;;;;;;;;5068148;28;20065;-66
2022/04/07 01:01:12;;;;;;;17.20;10.25;;;;;;;;;;5068017;28;20057;-66
2022/04/07 01:03:43;;;;;;;22.27;9.20;;;;;;;;;;5051832;28;20059;-66
2022/04/07 01:06:13;;;;;;;13.18;8.35;;;;;;;;;;5068452;28;20049;-66
2022/04/07 01:08:44;;;;;;;12.50;8.88;;;;;;;;;;5047552;28;20507;-66
2022/04/07 01:11:16;;;;;;;15.35;8.65;;;;;;;;;;5048095;28;20053;-66
2022/04/07 01:13:50;;;;;;;;;;;;;;;;;;5032177;28;20064;-66
2022/04/07 01:16:26;;;;;;;17.10;9.68;;;;;;;;;;5048149;28;19948;-66
2022/04/07 01:18:59;;;;;;;16.52;9.35;;;;;;;;;;5047905;28;20060;-66
2022/04/07 01:21:32;;;;;;;16.30;10.73;;;;;;;;;;5048000;28;20053;-66
2022/04/07 01:24:09;;;;;;;19.25;11.70;;;;;;;;;;4998912;28;20060;-66
2022/04/07 01:26:41;;;;;;;17.52;10.35;;;;;;;;;;5011054;28;20050;-66
2022/04/07 01:29:15;;;;;;;18.52;9.13;;;;;;;;;;5027961;28;20057;-66
2022/04/07 01:32:22;;;;;;;12.63;8.43;;;;;;;;;;5027952;28;20061;-66
2022/04/07 01:34:53;;;;;;;10.88;7.05;;;;;;;;;;4976733;28;20104;-66
2022/04/07 01:37:24;;;;;;;12.80;7.82;;;;;;;;;;5008114;28;20084;-66
2022/04/07 01:39:55;;;;;;;14.48;7.55;;;;;;;;;;4992192;28;20054;-66
2022/04/07 01:42:26;;;;;;;10.63;7.53;;;;;;;;;;4976220;28;20069;-66
2022/04/07 01:45:00;;;;;;;17.40;6.68;;;;;;;;;;4976304;28;20062;-66
2022/04/07 01:47:33;;;;;;;14.32;9.27;;;;;;;;;;4979015;28;20046;-66
2022/04/07 01:50:10;;;;;;;15.82;8.63;;;;;;;;;;5007840;28;20061;-66
2022/04/07 01:52:41;;;;;;;17.95;8.90;;;;;;;;;;5008128;28;20058;-66
2022/04/07 01:55:15;;;;;;;17.15;8.88;;;;;;;;;;4992254;28;20061;-66
2022/04/07 01:57:46;;;;;;;14.27;8.65;;;;;;;;;;4974857;28;20063;-66
2022/04/07 02:00:17;;;;;;;15.68;7.88;;;;;;;;;;4943963;28;20218;-66
2022/04/07 02:02:49;;;;;;;13.93;8.27;;;;;;;;;;4991462;28;20062;-65
2022/04/07 02:05:20;;;;;;;14.23;7.57;;;;;;;;;;4955941;28;20054;-66
2022/04/07 02:07:50;;;;;;;13.13;5.97;;;;;;;;;;4988287;28;20423;-65
2022/04/07 02:10:23;;;;;;;10.63;6.47;;;;;;;;;;4956218;28;20053;-66
2022/04/07 02:12:53;;;;;;;12.02;6.90;;;;;;;;;;4989982;28;20069;-66
2022/04/07 02:15:28;;;;;;;14.52;6.47;;;;;;;;;;4972588;28;20061;-66
2022/04/07 02:17:58;;;;;;;13.40;6.72;;;;;;;;;;4972291;28;20561;-66
2022/04/07 02:20:29;;;;;;;10.85;6.45;;;;;;;;;;4899215;29;20059;-66
2022/04/07 02:23:00;;;;;;;9.98;6.40;;;;;;;;;;4914651;29;20060;-66
2022/04/07 02:25:31;;;;;;;9.45;6.57;;;;;;;;;;4883463;29;20060;-66
2022/04/07 02:28:01;;;;;;;10.77;6.47;;;;;;;;;;4907094;29;20059;-66
2022/04/07 02:30:32;;;;;;;13.25;6.85;;;;;;;;;;4914523;29;20563;-66
2022/04/07 02:33:03;;;;;;;10.93;6.55;;;;;;;;;;4883098;29;20064;-66
2022/04/07 02:35:34;;;;;;;10.68;6.65;;;;;;;;;;4914821;29;20048;-66
2022/04/07 02:38:05;;;;;;;9.88;6.03;;;;;;;;;;4914529;29;20432;-66
2022/04/07 02:40:36;;;;;;;12.05;6.60;;;;;;;;;;4914551;29;20564;-66
2022/04/07 02:43:04;;;;;;;17.10;6.43;;;;;;;;;;4934500;28;20408;-66
2022/04/07 02:45:34;;;;;;;12.82;6.45;;;;;;;;;;4920417;28;20098;-66
2022/04/07 02:48:05;;;;;;;8.55;5.70;;;;;;;;;;4952516;28;20078;-66
2022/04/07 02:50:35;;;;;;;15.25;5.47;;;;;;;;;;4904885;28;20094;-66
2022/04/07 02:53:06;;;;;;;11.50;6.13;;;;;;;;;;4932702;29;20060;-66
2022/04/07 02:55:37;;;;;;;9.35;6.25;;;;;;;;;;4917783;29;20064;-66
2022/04/07 02:58:08;;;;;;;10.65;5.93;;;;;;;;;;4942962;28;20056;-66
2022/04/07 03:00:39;;;;;;;12.98;6.53;;;;;;;;;;4952351;28;20078;-66
2022/04/07 03:03:10;;;;;;;11.57;6.32;;;;;;;;;;4951980;28;20066;-66
2022/04/07 03:05:41;;;;;;;12.35;6.75;;;;;;;;;;4961896;28;20486;-66
2022/04/07 03:08:12;;;;;;;10.82;6.60;;;;;;;;;;4971346;28;20053;-66
2022/04/07 03:10:43;;;;;;;13.35;6.10;;;;;;;;;;4971606;28;20415;-66
2022/04/07 03:13:14;;;;;;;15.43;7.15;;;;;;;;;;4971159;28;20415;-66
2022/04/07 03:15:44;;;;;;;10.95;7.13;;;;;;;;;;4971290;28;20073;-66
2022/04/07 03:18:15;;;;;;;13.57;7.45;;;;;;;;;;4971117;28;20171;-64
2022/04/07 03:20:46;;;;;;;12.23;7.72;;;;;;;;;;4971146;28;20058;-64
2022/04/07 03:23:16;;;;;;;13.40;8.57;;;;;;;;;;5002434;28;20494;-64
2022/04/07 03:25:50;;;;;;;15.60;7.07;;;;;;;;;;5013209;28;20060;-64
2022/04/07 03:28:21;;;;;;;10.57;6.72;;;;;;;;;;5009617;28;20045;-64
2022/04/07 03:30:51;;;;;;;14.75;7.13;;;;;;;;;;5031198;28;20057;-64
2022/04/07 03:33:21;;;;;;;10.13;7.47;;;;;;;;;;5033639;28;20056;-64
2022/04/07 03:35:52;;;;;;;11.35;7.25;;;;;;;;;;5049492;28;20053;-64
2022/04/07 03:38:23;;;;;;;13.13;6.13;;;;;;;;;;5049571;28;20420;-64
2022/04/07 03:40:53;;;;;;;14.32;6.88;;;;;;;;;;5049383;28;20057;-64
2022/04/07 03:43:23;;;;;;;14.02;6.95;;;;;;;;;;5049563;28;20065;-64
2022/04/07 03:45:53;;;;;;;12.73;7.47;;;;;;;;;;5032906;28;20064;-64
2022/04/07 03:48:24;;;;;;;12.50;6.85;;;;;;;;;;5017432;28;20061;-64
2022/04/07 03:50:56;;;;;;;12.30;6.72;;;;;;;;;;5049276;28;20637;-65
2022/04/07 03:53:26;;;;;;;14.93;7.30;;;;;;;;;;5049383;28;20096;-64
2022/04/07 03:55:56;;;;;;;11.95;7.20;;;;;;;;;;5048996;28;20048;-64
2022/04/07 03:58:29;;;;;;;14.70;7.28;;;;;;;;;;5049218;28;20049;-64
2022/04/07 04:01:00;;;;;;;14.35;7.97;;;;;;;;;;5032789;28;20053;-64
2022/04/07 04:03:30;;;;;;;14.77;6.20;;;;;;;;;;5049025;28;20049;-64
2022/04/07 04:06:00;;;;;;;14.55;6.88;;;;;;;;;;4990547;28;20072;-64
2022/04/07 04:08:31;;;;;;;9.48;6.05;;;;;;;;;;5016300;28;20057;-64
2022/04/07 04:11:01;;;;;;;12.60;6.78;;;;;;;;;;5051620;28;20037;-64
2022/04/07 04:13:31;;;;;;;10.93;6.35;;;;;;;;;;5032552;28;20049;-64
2022/04/07 04:16:02;;;;;;;14.57;6.88;;;;;;;;;;5048996;28;20061;-64
2022/04/07 04:18:34;;;;;;;10.32;6.78;;;;;;;;;;5051257;28;20049;-64
2022/04/07 04:21:04;;;;;;;11.70;6.63;;;;;;;;;;5051054;28;20680;-64
2022/04/07 04:23:35;;;;;;;14.27;6.75;;;;;;;;;;5051209;28;20048;-64
2022/04/07 04:26:05;;;;;;;13.55;6.93;;;;;;;;;;5032611;28;20081;-64
2022/04/07 04:28:36;;;;;;;13.70;7.53;;;;;;;;;;5032294;28;20057;-64
2022/04/07 04:31:06;;;;;;;11.48;7.35;;;;;;;;;;5050811;28;20052;-64
2022/04/07 04:33:37;;;;;;;16.92;7.30;;;;;;;;;;5051410;28;20049;-64
2022/04/07 04:36:08;;;;;;;12.95;6.35;;;;;;;;;;5050290;28;20037;-64
2022/04/07 04:38:39;;;;;;;14.15;6.32;;;;;;;;;;5050780;28;20045;-64
2022/04/07 04:41:09;;;;;;;14.20;6.68;;;;;;;;;;5066017;28;20049;-64
2022/04/07 04:43:40;;;;;;;15.82;6.95;;;;;;;;;;5064764;28;20070;-64
2022/04/07 04:46:10;;;;;;;12.80;6.88;;;;;;;;;;5070715;28;20048;-64
2022/04/07 04:48:40;;;;;;;10.57;6.38;;;;;;;;;;5070849;28;20504;-65
2022/04/07 04:51:11;;;;;;;11.45;6.25;;;;;;;;;;5053461;28;20072;-64
2022/04/07 04:53:41;;;;;;;13.18;7.15;;;;;;;;;;5003143;28;20413;-65
2022/04/07 04:56:12;;;;;;;12.88;7.45;;;;;;;;;;5070374;28;20055;-64
2022/04/07 04:58:42;;;;;;;13.68;8.25;;;;;;;;;;5070966;28;20040;-64
2022/04/07 05:01:13;;;;;;;12.82;7.68;;;;;;;;;;5070742;28;20045;-64
2022/04/07 05:03:43;;;;;;;15.88;7.75;;;;;;;;;;5053253;28;20048;-64
2022/04/07 05:06:13;;;;;;;16.23;7.65;;;;;;;;;;5070689;28;20111;-67
2022/04/07 05:08:44;;;;;;;13.80;7.55;;;;;;;;;;5070562;28;20045;-64
2022/04/07 05:11:15;;;;;;;12.05;7.22;;;;;;;;;;5035318;28;20064;-64
2022/04/07 05:13:46;;;;;;;13.13;7.40;;;;;;;;;;5070500;28;20033;-64
2022/04/07 05:16:16;;;;;;;20.35;8.35;;;;;;;;;;5051901;28;20504;-64
2022/04/07 05:18:49;;;;;;;14.50;8.38;;;;;;;;;;5035330;28;20060;-65
2022/04/07 05:21:19;;;;;;;13.73;7.88;;;;;;;;;;5047478;28;20049;-64
2022/04/07 05:23:50;;;;;;;12.10;6.93;;;;;;;;;;5048189;28;20056;-64
2022/04/07 05:26:20;;;;;;;13.10;7.05;;;;;;;;;;5011573;28;20163;-64
2022/04/07 05:28:51;;;;;;;14.45;7.88;;;;;;;;;;5028000;28;20457;-64
2022/04/07 05:31:22;;;;;;;12.27;6.97;;;;;;;;;;4994945;28;20049;-64
2022/04/07 05:33:52;;;;;;;11.15;6.85;;;;;;;;;;5027887;28;20061;-64
2022/04/07 05:36:22;;;;;;;10.90;7.22;;;;;;;;;;5028064;28;20045;-64
2022/04/07 05:38:53;;;;;;;13.15;7.28;;;;;;;;;;5027933;28;20068;-64
2022/04/07 05:41:24;;;;;;;14.30;7.57;;;;;;;;;;5027992;28;20048;-64
2022/04/07 05:43:55;;;;;;;11.52;6.80;;;;;;;;;;5011593;28;20061;-64
2022/04/07 05:46:25;;;;;;;9.38;5.78;;;;;;;;;;5028491;28;20449;-64
2022/04/07 05:48:56;;;;;;;16.77;7.22;;;;;;;;;;5031222;28;20054;-65
2022/04/07 05:51:26;;;;;;;12.00;6.68;;;;;;;;;;5031506;28;20053;-64
2022/04/07 05:53:57;;;;;;;14.18;7.75;;;;;;;;;;5031711;28;20042;-64
2022/04/07 05:56:27;;;;;;;13.88;8.00;;;;;;;;;;4991846;28;20057;-64
2022/04/07 05:58:58;;;;;;;14.52;7.82;;;;;;;;;;4991659;28;20077;-64
2022/04/07 06:01:31;;;;;;;11.75;7.38;;;;;;;;;;4992160;28;20550;-64
2022/04/07 06:04:01;;;;;;;15.30;7.63;;;;;;;;;;5008681;28;20578;-64
2022/04/07 06:06:32;;;;;;;12.85;7.68;;;;;;;;;;5011820;28;20065;-64
2022/04/07 06:09:02;;;;;;;22.58;7.80;;;;;;;;;;4968513;28;20063;-64
2022/04/07 06:11:34;;;;;;;16.05;7.90;;;;;;;;;;4968900;28;20059;-64
2022/04/07 06:14:04;;;;;;;12.35;6.43;;;;;;;;;;4952710;29;20411;-64
2022/04/07 06:16:35;;;;;;;14.05;7.30;;;;;;;;;;4953123;29;20059;-64
2022/04/07 06:19:06;;;;;;;14.27;6.32;;;;;;;;;;4905928;29;20105;-64
2022/04/07 06:21:36;;;;;;;15.85;7.25;;;;;;;;;;4952757;29;20059;-64
2022/04/07 06:24:07;;;;;;;12.55;7.25;;;;;;;;;;4921022;29;20163;-64
2022/04/07 06:26:38;;;;;;;14.25;7.38;;;;;;;;;;4952758;29;20207;-64
2022/04/07 06:29:08;;;;;;;16.25;6.25;;;;;;;;;;4952678;29;20059;-64
2022/04/07 06:31:39;;;;;;;12.07;6.70;;;;;;;;;;4952779;29;20059;-64
2022/04/07 06:34:22;;;;;;;12.60;7.13;;;;;;;;;;4964335;28;20051;-64
2022/04/07 06:36:52;;;;;;;13.52;7.50;;;;;;;;;;4983827;28;20053;-64
2022/04/07 06:39:23;;;;;;;15.02;7.03;;;;;;;;;;4943172;28;20050;-64
2022/04/07 06:41:53;;;;;;;14.05;6.53;;;;;;;;;;4963963;28;20095;-64
2022/04/07 06:44:24;;;;;;;13.00;8.60;;;;;;;;;;4971628;28;20063;-64
2022/04/07 06:46:55;;;;;;;12.55;7.03;;;;;;;;;;4963208;28;20047;-64
2022/04/07 06:49:26;;;;;;;15.02;7.53;;;;;;;;;;4971661;28;20061;-65
2022/04/07 06:52:03;;;;;;;14.00;7.40;;;;;;;;;;4976354;28;20063;-66
2022/04/07 06:54:35;;;;;;;16.35;6.45;;;;;;;;;;4991019;28;20078;-65
2022/04/07 06:57:06;;;;;;;13.75;7.55;;;;;;;;;;4942546;28;20054;-65
2022/04/07 06:59:36;;;;;;;10.50;6.57;;;;;;;;;;4990317;28;20065;-65
2022/04/07 07:02:07;;;;;;;12.95;7.05;;;;;;;;;;4990816;28;20050;-64
2022/04/07 07:04:37;;;;;;;12.50;6.85;;;;;;;;;;4974125;28;20494;-65
2022/04/07 07:07:10;;;;;;;17.95;7.10;;;;;;;;;;4990896;28;20077;-65
2022/04/07 07:09:41;;;;;;;12.23;6.70;;;;;;;;;;4990760;28;20418;-65
2022/04/07 07:12:11;;;;;;;12.27;7.57;;;;;;;;;;4974899;28;20061;-65
2022/04/07 07:14:42;;;;;;;11.85;7.40;;;;;;;;;;4942656;28;20061;-65
2022/04/07 07:17:13;;;;;;;16.98;8.07;;;;;;;;;;4974365;28;20050;-65
2022/04/07 07:19:43;;;;;;;16.33;8.00;;;;;;;;;;5001938;28;20049;-65
2022/04/07 07:22:13;;;;;;;13.43;7.50;;;;;;;;;;5010312;28;20049;-65
2022/04/07 07:24:44;;;;;;;15.98;7.60;;;;;;;;;;5010114;28;20065;-64
2022/04/07 07:27:15;;;;;;;13.70;8.35;;;;;;;;;;4961537;28;20057;-65
2022/04/07 07:29:45;;;;;;;16.38;8.93;;;;;;;;;;5042676;28;20063;-64
2022/04/07 07:32:15;;;;;;;13.88;8.13;;;;;;;;;;5054620;28;20041;-65
2022/04/07 07:34:46;;;;;;;14.13;7.95;;;;;;;;;;5071711;28;20044;-64
2022/04/07 07:37:18;;;;;;;14.35;8.93;;;;;;;;;;5069208;28;20044;-65
2022/04/07 07:39:50;;;;;;;12.32;7.93;;;;;;;;;;5069322;28;20061;-65
2022/04/07 07:42:21;;;;;;;16.15;8.63;;;;;;;;;;5069349;28;20064;-65
2022/04/07 07:44:51;;;;;;;20.33;11.70;;;;;;;;;;5069270;28;20143;-65
2022/04/07 07:47:22;;;;;;;24.70;14.07;;;;;;;;;;5036228;28;20420;-65
2022/04/07 07:49:53;;;;;;;19.35;12.20;;;;;;;;;;5035806;28;20048;-65
2022/04/07 07:52:23;;;;;;;22.70;11.85;;;;;;;;;;5052869;28;20045;-66
2022/04/07 07:54:54;;;;;;;25.45;12.30;;;;;;;;;;5052727;28;20057;-65
2022/04/07 07:57:25;;;;;;;27.00;12.95;;;;;;;;;;5068967;28;20059;-65
2022/04/07 07:59:58;;;;;;;26.80;13.93;;;;;;;;;;5020078;28;20538;-65
2022/04/07 08:02:34;;;;;;;27.35;13.80;;;;;;;;;;5053792;28;20060;-66
2022/04/07 08:05:06;;;;;;;36.88;14.63;;;;;;;;;;5052516;28;20049;-65
2022/04/07 08:07:40;;;;;;;29.13;14.65;;;;;;;;;;5069127;28;20806;-65
2022/04/07 08:10:11;;;;;;;26.27;13.57;;;;;;;;;;5067914;28;20534;-65
2022/04/07 08:12:42;;;;;;;30.33;14.70;;;;;;;;;;5068751;28;20049;-65
2022/04/07 08:15:12;;;;;;;26.85;14.18;;;;;;;;;;5070087;28;20057;-65
2022/04/07 08:17:43;;;;;;;28.73;13.98;;;;;;;;;;5071148;28;20049;-65
2022/04/07 08:20:14;;;;;;;29.77;14.00;;;;;;;;;;5070994;28;20047;-65
2022/04/07 08:22:45;;;;;;;36.78;14.07;;;;;;;;;;5071107;28;20425;-65
2022/04/07 08:25:15;;;;;;;27.63;12.45;;;;;;;;;;5053491;28;20051;-65
2022/04/07 08:27:46;;;;;;;33.67;15.20;;;;;;;;;;5019791;28;20052;-65
2022/04/07 08:30:17;;;;;;;34.88;16.38;;;;;;;;;;5035428;28;20488;-65
2022/04/07 08:32:47;;;;;;;36.95;16.25;;;;;;;;;;5052645;28;20053;-65
2022/04/07 08:35:17;;;;;;;33.40;14.98;;;;;;;;;;5071052;28;20410;-65
2022/04/07 08:37:48;;;;;;;39.95;18.17;;;;;;;;;;5019418;28;20052;-65
2022/04/07 08:40:22;;;;;;;41.75;16.40;;;;;;;;;;5071134;28;20404;-65
2022/04/07 08:42:52;;;;;;;45.10;16.98;;;;;;;;;;5068075;28;20041;-65
2022/04/07 08:45:23;;;;;;;50.50;18.15;;;;;;;;;;5068227;28;20056;-65
2022/04/07 08:47:57;;;;;;;51.25;18.20;;;;;;;;;;5068419;28;20060;-65
2022/04/07 08:50:27;;;;;;;48.47;17.38;;;;;;;;;;5051664;28;20068;-65
2022/04/07 08:52:59;;;;;;;48.72;19.17;;;;;;;;;;5008251;28;20045;-64
2022/04/07 08:55:29;;;;;;;44.47;17.17;;;;;;;;;;5008445;28;20054;-64
2022/04/07 08:58:01;;;;;;;44.33;16.85;;;;;;;;;;5008556;28;20061;-65
2022/04/07 09:00:32;;;;;;;42.10;14.93;;;;;;;;;;4975472;28;20050;-65
2022/04/07 09:03:03;;;;;;;40.80;16.50;;;;;;;;;;5008623;28;20050;-65
2022/04/07 09:06:01;;;;;;;43.80;16.38;;;;;;;;;;5008273;28;20068;-65
2022/04/07 09:08:34;;;;;;;41.40;15.85;;;;;;;;;;5008405;28;20058;-65
2022/04/07 09:11:10;;;;;;;44.22;16.17;;;;;;;;;;4992251;28;20057;-65
2022/04/07 09:13:42;;;;;;;40.80;13.85;;;;;;;;;;5008523;28;20050;-65
2022/04/07 09:16:14;;;;;;;41.83;13.82;;;;;;;;;;4976025;28;20075;-65
2022/04/07 09:18:47;;;;;;;;;;;;;;;;;;4969292;28;20042;-65
2022/04/07 09:21:27;;;;;;;35.28;14.60;;;;;;;;;;4954481;28;19923;-65
2022/04/07 09:24:00;;;;;;;39.97;14.10;;;;;;;;;;4915177;29;20064;-65
2022/04/07 09:26:32;;;;;;;36.20;15.73;;;;;;;;;;4915915;29;20067;-66
2022/04/07 09:29:10;;;;;;;42.08;14.88;;;;;;;;;;4884311;29;20417;-65
2022/04/07 09:31:51;;;;;;;38.78;16.13;;;;;;;;;;4988105;28;20066;-65
2022/04/07 09:34:31;;;;;;;43.00;15.25;;;;;;;;;;4992393;28;20058;-66
2022/04/07 09:37:10;;;;;;;42.45;15.13;;;;;;;;;;4972681;28;20554;-66
2022/04/07 09:39:42;;;;;;;37.88;15.23;;;;;;;;;;4972794;28;20047;-67
2022/04/07 09:42:23;;;;;;;40.25;15.63;;;;;;;;;;4988224;28;20126;-73
2022/04/07 09:45:01;;;;;;;36.75;15.82;;;;;;;;;;4972977;28;20039;-72
2022/04/07 09:47:46;;;;;;;35.67;14.35;;;;;;;;;;4972531;28;20062;-70
2022/04/07 09:50:32;;;;;;;35.88;15.50;;;;;;;;;;4991778;28;20053;-69
2022/04/07 09:53:07;;;;;;;35.22;12.27;;;;;;;;;;4992466;28;20529;-68
2022/04/07 09:55:44;;;;;;;35.38;13.32;;;;;;;;;;4995072;28;20057;-66
2022/04/07 09:58:17;;;;;;;28.73;12.45;;;;;;;;;;4991902;28;20100;-66
2022/04/07 10:00:48;;;;;;;25.58;10.75;;;;;;;;;;4918228;29;20516;-66
2022/04/07 10:03:19;;;;;;;22.98;11.85;;;;;;;;;;4933852;29;20055;-69
2022/04/07 10:05:50;;;;;;;25.50;11.82;;;;;;;;;;4933897;29;20063;-71
2022/04/07 10:08:22;;;;;;;26.83;11.70;;;;;;;;;;4902389;29;20100;-71
2022/04/07 10:10:54;;;;;;;26.73;13.90;;;;;;;;;;4933727;29;20055;-70
2022/04/07 10:13:27;;;;;;;25.05;11.27;;;;;;;;;;4933827;29;20052;-68
2022/04/07 10:15:58;;;;;;;22.95;10.95;;;;;;;;;;4917430;29;20085;-67
2022/04/07 10:18:42;;;;;;;24.63;10.07;;;;;;;;;;4933829;29;20460;-66
2022/04/07 10:21:24;;;;;;;27.90;13.20;;;;;;;;;;4874398;29;20528;-66
2022/04/07 10:24:05;;;;;;;22.42;10.27;;;;;;;;;;4879915;29;20060;-66
2022/04/07 10:26:39;;;;;;;20.08;10.43;;;;;;;;;;4929621;29;20410;-66
2022/04/07 10:29:21;;;;;;;23.45;11.50;;;;;;;;;;4861374;29;20057;-65
2022/04/07 10:32:14;;;;;;;20.50;9.98;;;;;;;;;;4870602;29;20068;-66
2022/04/07 10:34:58;;;;;;;21.20;9.80;;;;;;;;;;4898518;29;20167;-66
2022/04/07 10:37:49;;;;;;;21.30;10.93;;;;;;;;;;4897182;29;20060;-66
2022/04/07 10:40:39;;;;;;;20.30;9.68;;;;;;;;;;4864276;29;20556;-66
2022/04/07 10:43:18;;;;;;;21.95;10.30;;;;;;;;;;4895340;29;20067;-66
2022/04/07 10:45:53;;;;;;;22.02;11.95;;;;;;;;;;4895490;29;20061;-71
2022/04/07 10:48:24;;;;;;;20.90;11.90;;;;;;;;;;4895356;29;20048;-74
2022/04/07 10:50:58;;;;;;;23.50;12.65;;;;;;;;;;4895414;29;20060;-71
2022/04/07 10:53:32;;;;;;;25.83;12.95;;;;;;;;;;4911541;29;20052;-73
2022/04/07 10:56:05;;;;;;;21.10;12.73;;;;;;;;;;4933311;29;20066;-76
2022/04/07 10:58:41;;;;;;;27.38;13.70;;;;;;;;;;4940339;29;20067;-74
2022/04/07 11:01:30;;;;;;;22.23;10.85;;;;;;;;;;4952118;29;20059;-75
2022/04/07 11:04:22;;;;;;;24.80;11.35;;;;;;;;;;4975600;28;20058;-75
2022/04/07 11:07:09;;;;;;;22.52;11.15;;;;;;;;;;5044024;28;20067;-71
2022/04/07 11:10:01;;;;;;;23.73;11.85;;;;;;;;;;5072369;28;20476;-72
2022/04/07 11:12:39;;;;;;;20.00;9.80;;;;;;;;;;5072261;28;20409;-74
2022/04/07 11:15:18;;;;;;;21.25;11.77;;;;;;;;;;5054968;28;20048;-72
2022/04/07 11:17:53;;;;;;;22.85;13.25;;;;;;;;;;5036970;28;20055;-68
2022/04/07 11:20:25;;;;;;;23.88;12.63;;;;;;;;;;5021207;28;20056;-70
2022/04/07 11:23:06;;;;;;;19.85;11.45;;;;;;;;;;5072147;28;20045;-68
2022/04/07 11:25:41;;;;;;;19.92;10.70;;;;;;;;;;5021250;28;20060;-68
2022/04/07 11:28:27;;;;;;;19.67;9.10;;;;;;;;;;5072017;28;20404;-67
2022/04/07 11:31:00;;;;;;;18.30;10.73;;;;;;;;;;5055890;28;20040;-67
2022/04/07 11:33:38;;;;;;;22.83;12.45;;;;;;;;;;5071609;28;20044;-67
2022/04/07 11:36:14;;;;;;;18.85;8.32;;;;;;;;;;5052912;28;20057;-67
2022/04/07 11:38:54;;;;;;;20.52;9.77;;;;;;;;;;5071597;28;20047;-67
2022/04/07 11:41:31;;;;;;;13.48;7.88;;;;;;;;;;5054927;28;20060;-67
2022/04/07 11:44:09;;;;;;;11.00;6.63;;;;;;;;;;5071600;28;20052;-66
2022/04/07 11:46:40;;;;;;;11.52;5.18;;;;;;;;;;5020282;28;20432;-66
2022/04/07 11:49:16;;;;;;;9.95;5.15;;;;;;;;;;5036378;28;20412;-68
2022/04/07 11:52:04;;;;;;;;;;;;;;;;;;5041919;28;20056;-70
2022/04/07 11:54:40;;;;;;;12.88;5.78;;;;;;;;;;5071482;28;19928;-76
2022/04/07 11:57:11;;;;;;;13.18;7.43;;;;;;;;;;5071234;28;20044;-71
2022/04/07 11:59:44;;;;;;;17.45;9.43;;;;;;;;;;5051907;28;20067;-68
2022/04/07 12:02:21;;;;;;;14.88;8.07;;;;;;;;;;5032104;28;20493;-67
2022/04/07 12:05:11;;;;;;;11.07;7.07;;;;;;;;;;5049208;28;20069;-67
2022/04/07 12:07:42;;;;;;;11.88;7.22;;;;;;;;;;5012819;28;20050;-66
2022/04/07 12:10:14;;;;;;;13.40;7.30;;;;;;;;;;5028961;28;20101;-67
2022/04/07 12:12:45;;;;;;;12.75;6.40;;;;;;;;;;5012082;28;20452;-67
2022/04/07 12:15:18;;;;;;;12.48;6.47;;;;;;;;;;5012743;28;20053;-68
2022/04/07 12:18:29;;;;;;;11.70;6.28;;;;;;;;;;4992155;28;20048;-67
2022/04/07 12:21:03;;;;;;;12.20;6.78;;;;;;;;;;4969574;28;20507;-69
2022/04/07 12:23:34;;;;;;;11.80;6.90;;;;;;;;;;4969918;28;20066;-68
2022/04/07 12:26:06;;;;;;;12.18;6.97;;;;;;;;;;4969774;28;20055;-70
2022/04/07 12:28:40;;;;;;;11.48;6.68;;;;;;;;;;4969836;28;20059;-72
2022/04/07 12:31:13;;;;;;;13.50;6.07;;;;;;;;;;4969998;28;20070;-71
2022/04/07 12:33:45;;;;;;;16.05;6.93;;;;;;;;;;4969722;28;20055;-68
2022/04/07 12:36:35;;;;;;;11.35;6.55;;;;;;;;;;4970229;28;20062;-70
2022/04/07 12:39:12;;;;;;;11.85;5.80;;;;;;;;;;4939400;28;20054;-70
2022/04/07 12:41:47;;;;;;;13.95;5.68;;;;;;;;;;4934478;28;20059;-72
2022/04/07 12:44:22;;;;;;;8.23;4.70;;;;;;;;;;4951548;28;20567;-70
2022/04/07 12:46:58;;;;;;;5.65;3.45;;;;;;;;;;4969865;28;20070;-71
2022/04/07 12:49:37;;;;;;;10.75;5.78;;;;;;;;;;4937773;28;20534;-72
2022/04/07 12:52:19;;;;;;;6.93;3.42;;;;;;;;;;4969818;28;20180;-74
2022/04/07 12:55:03;;;;;;;5.43;3.10;;;;;;;;;;4931491;28;20056;-72
2022/04/07 12:57:41;;;;;;;4.85;2.78;;;;;;;;;;5011534;28;20046;-71
2022/04/07 13:00:34;;;;;;;5.10;3.45;;;;;;;;;;4975718;28;20070;-69
2022/04/07 13:03:13;;;;;;;6.25;3.20;;;;;;;;;;4988844;28;20065;-67
2022/04/07 13:05:44;;;;;;;4.95;2.78;;;;;;;;;;4988927;28;20494;-66
2022/04/07 13:08:14;;;;;;;6.18;3.42;;;;;;;;;;4989044;28;20855;-67
2022/04/07 13:10:45;;;;;;;8.60;3.53;;;;;;;;;;4949990;29;20047;-62
2022/04/07 13:13:15;;;;;;;7.40;3.45;;;;;;;;;;4950123;29;20059;-63
2022/04/07 13:17:15;;;;;;;5.38;2.03;;;;;;;;;;5150932;27;20488;-62
2022/04/07 13:20:07;;;;;;;8.38;2.72;;;;;;;;;;5087119;28;20055;-64
2022/04/07 13:22:38;;;;;;;3.50;1.05;;;;;;;;;;5046875;28;20049;-63
2022/04/07 13:25:09;;;;;;;2.75;0.50;;;;;;;;;;5047379;28;20057;-62
2022/04/07 13:27:40;;;;;;;4.72;1.30;;;;;;;;;;5014630;28;20083;-61
2022/04/07 13:30:12;;;;;;;3.92;1.60;;;;;;;;;;4990795;28;20050;-60
2022/04/07 13:32:43;;;;;;;2.90;1.70;;;;;;;;;;4974813;28;20057;-61
2022/04/07 13:35:13;;;;;;;2.55;1.35;;;;;;;;;;5007392;28;20054;-60
2022/04/07 13:37:44;;;;;;;1.85;1.23;;;;;;;;;;5007450;28;20050;-61
2022/04/07 13:40:14;;;;;;;2.65;1.10;;;;;;;;;;5007010;28;20046;-60
2022/04/07 13:42:53;;;;;;;2.53;1.00;;;;;;;;;;5007283;28;20058;-61
2022/04/07 13:45:24;;;;;;;1.48;0.93;;;;;;;;;;5007295;28;20644;-62
2022/04/07 13:47:55;;;;;;;2.20;1.08;;;;;;;;;;5006904;28;20537;-62
2022/04/07 13:50:25;;;;;;;2.47;1.20;;;;;;;;;;5006847;28;20545;-62
2022/04/07 13:52:57;;;;;;;4.47;1.13;;;;;;;;;;4989675;28;20053;-61
2022/04/07 13:55:30;;;;;;;2.15;1.25;;;;;;;;;;5006696;28;20069;-62
2022/04/07 13:58:00;;;;;;;;;;;;;;;;;;5007221;28;20069;-61
2022/04/07 14:00:30;;;;;;;1.77;0.70;;;;;;;;;;5006733;28;19922;-62
2022/04/07 14:03:01;;;;;;;2.10;0.80;;;;;;;;;;4987241;28;20066;-62
2022/04/07 14:05:33;;;;;;;2.22;0.70;;;;;;;;;;5006400;28;20525;-61
2022/04/07 14:08:04;;;;;;;1.05;0.57;;;;;;;;;;4994826;28;20062;-62
2022/04/07 14:10:35;;;;;;;2.33;0.77;;;;;;;;;;5006246;28;20050;-63
2022/04/07 14:13:05;;;;;;;4.82;0.80;;;;;;;;;;5006633;28;20501;-63
2022/04/07 14:15:36;;;;;;;3.22;0.75;;;;;;;;;;4973625;28;20054;-64
2022/04/07 14:18:08;;;;;;;2.00;0.70;;;;;;;;;;4980150;28;20413;-65
2022/04/07 14:20:41;;;;;;;1.10;0.60;;;;;;;;;;5026148;28;20057;-64
2022/04/07 14:23:12;;;;;;;2.47;1.10;;;;;;;;;;5026162;28;20058;-63
2022/04/07 14:25:43;;;;;;;6.18;2.33;;;;;;;;;;5008973;28;20060;-64
2022/04/07 14:28:20;;;;;;;5.50;3.30;;;;;;;;;;4964744;28;20054;-62
2022/04/07 14:30:51;;;;;;;5.80;2.42;;;;;;;;;;4996617;28;20097;-61
2022/04/07 14:33:21;;;;;;;5.82;3.85;;;;;;;;;;5013013;28;20054;-61
2022/04/07 14:35:52;;;;;;;3.67;2.50;;;;;;;;;;5012637;28;20578;-61
2022/04/07 14:38:23;;;;;;;3.47;2.15;;;;;;;;;;5013176;28;20061;-61
2022/04/07 14:40:53;;;;;;;3.00;1.65;;;;;;;;;;5012852;28;20057;-61
2022/04/07 14:43:24;;;;;;;3.00;1.33;;;;;;;;;;5037395;28;20056;-60
2022/04/07 14:45:55;;;;;;;5.25;2.60;;;;;;;;;;5052169;28;20228;-61
2022/04/07 14:48:26;;;;;;;2.75;1.30;;;;;;;;;;5036769;28;20049;-61
2022/04/07 14:50:57;;;;;;;2.83;1.20;;;;;;;;;;5052200;28;20052;-60
2022/04/07 14:53:28;;;;;;;2.38;1.45;;;;;;;;;;5051830;28;20049;-61
2022/04/07 14:55:59;;;;;;;2.35;1.17;;;;;;;;;;5052150;28;20456;-62
2022/04/07 14:58:30;;;;;;;2.13;1.23;;;;;;;;;;5052232;28;20049;-62
2022/04/07 15:01:01;;;;;;;9.85;6.95;;;;;;;;;;5052100;28;20056;-63
2022/04/07 15:03:32;;;;;;;8.48;5.07;;;;;;;;;;5018864;28;20504;-64
2022/04/07 15:06:03;;;;;;;6.72;4.25;;;;;;;;;;5051703;28;20064;-62